Aviation Forecast PDF Print E-mail

 met_logo

NATIONAL METEOROLOGICAL SERVICE OF BELIZE

Area Forecast for the Country of Belize


For the period from:

1200  23  AUGUST  2014

to

2400  23  AUGUST  2014

All Heights in the forecast are above sea level. PS= Positive, MS= Minus. All times are UTC.


A.

SPECIAL FEATURES of the METEOROLOGICAL SITUATION

 LIGHT NORTHEASTERLY AIRFLOW IS INFLUENCING OUR WEATHER.

B.

HEIGHT (Ft)

WIND (True Degrees and Knots)

TEMPERATURE (°C)

Surface

06008

PS32-35

2,000

08515

PS22

5,000

09010

PS18

10,000

10010

PS09


C.

CLOUDS (Amount, Type, Ceiling and Top (optional))

 FEWT CB BASES 1,000-1,500FT.; TOPS NEAR 30,000FT. 

 SCT/BKN CU BASES 1,500-2,500FT.; TOPS 6,000-8,000FT.

 


D.

SURFACE VISIBILITY:  REDUCED TO 2-5KM IN TSRA / SHRA AND 500M IN HILL FOG.;OTHERWISE GREATER THAN 10KM.


E.

WEATHER:  MOSTLY SUNNY; A FEW SHOWERS AND ISOLATED THUNDERSTORMS MAINLY INLAND THIS AFTERNOON. HILL FOG INLAND.

Remarks, Warnings, Turbulence

Barometric Changes

LOW CLOUDS COVERING HILLS

MOD TURB IN TCU/CB

FALLING

G.

OUTLOOK:

TO 1200 24 AUG -

CLOUDY SPELLS. FEW SHRA / ISOL TSRA MOSTLY INLAND. 

H.

TAF  MZBZ

230900Z 2312/2412 33005KT 9999 SCT018 BECMG  AT1700 06008KT 9999 SCT023 =

I.

Meteorological Office:

BELIZE

Issued at:

1200 23 AUGUST 2014

Forecaster:

F.Tench Jr.